createdAt,value
2018-12-18T00:00:13.405Z,171.33
2018-12-18T00:02:40.929Z,166.73
2018-12-18T00:08:04.813Z,182.03
2018-12-18T00:10:37.791Z,168.70
2018-12-18T00:13:05.258Z,164.13
2018-12-18T00:15:32.709Z,184.87
2018-12-18T00:18:00.203Z,158.60
2018-12-18T00:20:27.637Z,166.47
2018-12-18T00:22:55.066Z,183.20
2018-12-18T00:25:22.510Z,191.73
2018-12-18T00:27:49.976Z,169.70
2018-12-18T00:30:17.491Z,180.43
2018-12-18T00:32:44.945Z,198.17
2018-12-18T00:35:12.404Z,256.23
2018-12-18T00:37:39.842Z,166.97
2018-12-18T00:40:07.392Z,219.87
2018-12-18T00:42:34.865Z,203.50
2018-12-18T00:45:02.312Z,169.30
2018-12-18T00:47:29.776Z,187.90
2018-12-18T00:49:57.235Z,197.13
2018-12-18T00:52:24.691Z,193.23
2018-12-18T00:54:52.147Z,186.70
2018-12-18T00:57:19.606Z,199.43
2018-12-18T00:59:47.038Z,184.97
2018-12-18T01:02:14.524Z,196.00
2018-12-18T01:04:41.978Z,190.93
2018-12-18T01:07:10.462Z,206.30
2018-12-18T01:09:37.891Z,203.93
2018-12-18T01:12:05.432Z,181.33
2018-12-18T01:14:32.947Z,201.07
2018-12-18T01:17:00.510Z,206.63
2018-12-18T01:19:28.001Z,206.13
2018-12-18T01:21:55.462Z,222.80
2018-12-18T01:24:22.922Z,223.20
2018-12-18T01:26:50.350Z,211.87
2018-12-18T01:29:17.807Z,201.27
2018-12-18T01:31:45.257Z,234.13
2018-12-18T01:34:12.712Z,212.40
2018-12-18T01:36:40.230Z,230.30
2018-12-18T01:39:07.731Z,216.73
2018-12-18T01:41:35.182Z,201.43
2018-12-18T01:44:02.716Z,204.73
2018-12-18T01:46:30.179Z,208.87
2018-12-18T01:48:57.643Z,191.70
2018-12-18T01:51:25.107Z,205.40
2018-12-18T01:53:52.570Z,218.90
2018-12-18T01:56:20.022Z,225.53
2018-12-18T01:58:47.483Z,232.67
2018-12-18T02:01:15.002Z,209.20
2018-12-18T02:03:42.454Z,238.50
2018-12-18T02:06:09.986Z,239.43
2018-12-18T02:08:37.423Z,218.53
2018-12-18T02:11:04.870Z,232.93
2018-12-18T02:13:32.351Z,269.53
2018-12-18T02:15:59.790Z,239.40
2018-12-18T02:18:27.430Z,232.00
2018-12-18T02:20:54.874Z,282.40
2018-12-18T02:23:22.334Z,233.00
2018-12-18T02:25:49.770Z,243.43
2018-12-18T02:28:17.227Z,248.23
2018-12-18T02:30:44.652Z,257.13
2018-12-18T02:33:12.107Z,268.47
2018-12-18T02:35:39.544Z,210.40
2018-12-18T02:38:07.004Z,234.30
2018-12-18T02:40:34.527Z,243.00
2018-12-18T02:43:01.984Z,203.00
2018-12-18T02:45:29.447Z,226.13
2018-12-18T02:47:56.908Z,232.10
2018-12-18T02:50:24.362Z,218.37
2018-12-18T02:52:51.819Z,220.83
2018-12-18T02:55:19.264Z,241.03
2018-12-18T02:57:46.714Z,220.50
2018-12-18T03:00:14.219Z,213.10
2018-12-18T03:02:41.683Z,193.67
2018-12-18T03:05:09.126Z,196.33
2018-12-18T03:07:36.611Z,208.57
2018-12-18T03:10:05.335Z,215.67
2018-12-18T03:12:32.851Z,181.83
2018-12-18T03:15:00.307Z,208.80
2018-12-18T03:17:27.758Z,192.30
2018-12-18T03:19:55.206Z,200.00
2018-12-18T03:22:22.659Z,202.17
2018-12-18T03:24:50.104Z,191.00
2018-12-18T03:27:17.556Z,216.27
2018-12-18T03:29:44.996Z,192.13
2018-12-18T03:32:13.304Z,182.67
2018-12-18T03:34:40.852Z,199.97
2018-12-18T03:37:08.337Z,168.87
2018-12-18T03:39:35.859Z,178.83
2018-12-18T03:42:03.404Z,186.90
2018-12-18T03:44:30.885Z,178.10
2018-12-18T03:46:58.359Z,173.87
2018-12-18T03:49:25.799Z,170.23
2018-12-18T03:51:53.271Z,157.10
2018-12-18T03:54:20.781Z,162.63
2018-12-18T03:56:48.303Z,177.10
2018-12-18T03:59:15.772Z,175.00
2018-12-18T04:01:43.192Z,169.47
2018-12-18T04:04:10.648Z,163.87
2018-12-18T04:06:38.619Z,168.47
2018-12-18T04:09:06.284Z,158.60
2018-12-18T04:11:35.662Z,157.10
2018-12-18T04:14:03.244Z,166.87
2018-12-18T04:16:30.699Z,155.13
2018-12-18T04:18:58.155Z,155.10
2018-12-18T04:21:25.651Z,163.80
2018-12-18T04:23:53.084Z,153.33
2018-12-18T04:26:20.547Z,165.67
2018-12-18T04:28:47.986Z,149.20
2018-12-18T04:31:15.431Z,165.20
2018-12-18T04:33:42.899Z,148.70
2018-12-18T04:36:10.451Z,135.73
2018-12-18T04:38:37.919Z,135.00
2018-12-18T04:41:05.357Z,137.50
2018-12-18T04:43:32.815Z,138.23
2018-12-18T04:46:00.273Z,128.03
2018-12-18T04:48:27.920Z,145.67
2018-12-18T04:50:55.347Z,130.23
2018-12-18T04:53:22.778Z,119.17
2018-12-18T04:55:50.236Z,131.00
2018-12-18T04:58:17.699Z,129.20
2018-12-18T05:00:45.146Z,127.47
2018-12-18T05:03:12.711Z,133.83
2018-12-18T05:05:40.274Z,124.43
2018-12-18T05:08:07.796Z,125.30
2018-12-18T05:10:35.276Z,127.97
2018-12-18T05:13:02.714Z,109.37
2018-12-18T05:15:30.226Z,118.83
2018-12-18T05:17:57.698Z,110.53
2018-12-18T05:20:25.231Z,125.33
2018-12-18T05:22:52.711Z,109.60
2018-12-18T05:25:20.167Z,112.30
2018-12-18T05:27:47.618Z,105.90
2018-12-18T05:30:15.096Z,106.70
2018-12-18T05:32:42.535Z,98.60
2018-12-18T05:35:10.080Z,108.57
2018-12-18T05:37:37.514Z,103.23
2018-12-18T05:40:05.740Z,109.63
2018-12-18T05:42:33.191Z,113.63
2018-12-18T05:45:00.658Z,110.07
2018-12-18T05:47:28.086Z,114.10
2018-12-18T05:49:55.547Z,108.33
2018-12-18T05:52:22.999Z,96.93
2018-12-18T05:54:50.439Z,97.80
2018-12-18T05:57:18.028Z,108.20
2018-12-18T05:59:45.484Z,105.80
2018-12-18T06:02:12.942Z,108.00
2018-12-18T06:04:40.385Z,110.33
2018-12-18T06:07:07.855Z,105.23
2018-12-18T06:09:35.303Z,97.27
2018-12-18T06:12:02.747Z,109.87
2018-12-18T06:14:30.251Z,105.90
2018-12-18T06:16:57.707Z,109.00
2018-12-18T06:19:25.143Z,101.40
2018-12-18T06:21:52.600Z,103.10
2018-12-18T06:24:20.068Z,109.73
2018-12-18T06:26:47.496Z,105.13
2018-12-18T06:29:14.951Z,109.97
2018-12-18T06:31:42.394Z,102.93
2018-12-18T06:34:09.850Z,97.03
2018-12-18T06:36:37.286Z,92.63
2018-12-18T06:39:06.261Z,95.43
2018-12-18T06:41:33.751Z,91.10
2018-12-18T06:44:01.189Z,99.53
2018-12-18T06:46:28.647Z,88.23
2018-12-18T06:48:56.145Z,87.30
2018-12-18T06:51:23.583Z,90.33
2018-12-18T06:53:51.033Z,93.63
2018-12-18T06:56:18.482Z,91.40
2018-12-18T06:58:45.915Z,89.83
2018-12-18T07:01:13.363Z,90.77
2018-12-18T07:03:40.808Z,76.90
2018-12-18T07:06:08.335Z,82.33
2018-12-18T07:08:35.781Z,78.23
2018-12-18T07:11:03.228Z,80.53
2018-12-18T07:13:30.684Z,80.80
2018-12-18T07:15:58.140Z,85.50
2018-12-18T07:18:25.599Z,71.47
2018-12-18T07:20:53.022Z,86.13
2018-12-18T07:23:20.451Z,76.40
2018-12-18T07:25:47.902Z,86.93
2018-12-18T07:28:15.334Z,90.63
2018-12-18T07:30:42.836Z,82.87
2018-12-18T07:33:10.281Z,94.73
2018-12-18T07:35:37.734Z,97.93
2018-12-18T07:38:05.183Z,108.17
2018-12-18T07:40:32.615Z,99.20
2018-12-18T07:43:00.070Z,94.73
2018-12-18T07:45:27.531Z,102.10
2018-12-18T07:47:54.977Z,98.17
2018-12-18T07:50:22.437Z,106.37
2018-12-18T07:52:49.868Z,102.97
2018-12-18T07:55:17.318Z,100.37
2018-12-18T07:57:44.772Z,111.87
2018-12-18T08:00:12.219Z,109.53
2018-12-18T08:02:39.664Z,104.33
2018-12-18T08:05:07.170Z,102.07
2018-12-18T08:07:34.642Z,111.93
2018-12-18T08:10:02.079Z,110.10
2018-12-18T08:12:29.525Z,119.83
2018-12-18T08:14:56.971Z,115.40
2018-12-18T08:17:24.432Z,105.93
2018-12-18T08:19:51.903Z,102.43
2018-12-18T08:22:19.936Z,98.63
2018-12-18T08:24:47.398Z,106.70
2018-12-18T08:27:14.879Z,97.73
2018-12-18T08:29:42.402Z,102.00
2018-12-18T08:32:09.886Z,89.87
2018-12-18T08:34:37.343Z,91.33
2018-12-18T08:37:04.779Z,90.63
2018-12-18T08:39:32.245Z,93.73
2018-12-18T08:41:59.851Z,88.67
2018-12-18T08:44:27.328Z,89.33
2018-12-18T08:46:54.783Z,86.63
2018-12-18T08:49:22.302Z,96.80
2018-12-18T08:51:49.758Z,90.43
2018-12-18T08:54:17.178Z,98.97
2018-12-18T08:56:44.636Z,91.03
2018-12-18T08:59:12.079Z,86.87
2018-12-18T09:01:39.539Z,83.57
2018-12-18T09:04:06.990Z,83.37
2018-12-18T09:06:34.442Z,78.17
2018-12-18T09:09:01.891Z,86.67
2018-12-18T09:11:29.551Z,79.67
2018-12-18T09:13:56.979Z,71.80
2018-12-18T09:16:30.218Z,63.77
2018-12-18T09:18:57.650Z,65.83
2018-12-18T09:21:25.103Z,69.33
2018-12-18T09:23:52.547Z,65.83
2018-12-18T09:26:19.980Z,65.50
2018-12-18T09:28:47.438Z,62.97
2018-12-18T09:31:14.875Z,64.87
2018-12-18T09:33:42.319Z,65.40
2018-12-18T09:36:09.766Z,64.13
2018-12-18T09:38:42.923Z,66.67
2018-12-18T09:41:15.980Z,66.83
2018-12-18T09:43:49.103Z,65.27
2018-12-18T09:46:16.536Z,62.50
2018-12-18T09:48:43.986Z,73.73
2018-12-18T09:51:11.511Z,70.27
2018-12-18T09:53:38.970Z,59.27
2018-12-18T09:56:06.467Z,62.43
2018-12-18T09:58:33.895Z,60.97
2018-12-18T10:01:01.477Z,64.50
2018-12-18T10:03:33.526Z,64.87
2018-12-18T10:05:58.473Z,69.33
2018-12-18T10:08:25.987Z,67.67
2018-12-18T10:10:53.432Z,65.87
2018-12-18T10:13:20.870Z,54.70
2018-12-18T10:15:48.328Z,65.27
2018-12-18T10:18:15.759Z,101.00
2018-12-18T10:20:43.198Z,62.63
2018-12-18T10:23:10.708Z,57.63
2018-12-18T10:25:38.235Z,55.60
2018-12-18T10:28:05.719Z,61.50
2018-12-18T10:30:33.196Z,63.20
2018-12-18T10:33:00.648Z,56.10
2018-12-18T10:35:28.075Z,54.77
2018-12-18T10:37:55.499Z,57.17
2018-12-18T10:40:22.975Z,62.87
2018-12-18T10:42:50.432Z,62.33
2018-12-18T10:45:17.931Z,67.43
2018-12-18T10:47:45.387Z,67.00
2018-12-18T10:50:12.894Z,63.03
2018-12-18T10:52:40.345Z,87.13
2018-12-18T10:55:07.855Z,68.70
2018-12-18T10:57:35.377Z,63.33
2018-12-18T11:00:07.189Z,70.50
2018-12-18T11:02:34.666Z,68.33
2018-12-18T11:05:02.248Z,68.53
2018-12-18T11:07:29.687Z,69.63
2018-12-18T11:09:57.147Z,76.37
2018-12-18T11:12:30.335Z,70.63
2018-12-18T11:14:57.775Z,74.93
2018-12-18T11:17:25.219Z,76.30
2018-12-18T11:19:52.686Z,71.63
2018-12-18T11:22:20.145Z,77.13
2018-12-18T11:24:47.636Z,75.80
2018-12-18T11:27:15.060Z,66.20
2018-12-18T11:29:42.516Z,82.87
2018-12-18T11:32:10.063Z,66.87
2018-12-18T11:34:37.535Z,75.43
2018-12-18T11:37:04.989Z,78.27
2018-12-18T11:39:32.448Z,60.97
2018-12-18T11:41:59.951Z,64.60
2018-12-18T11:44:27.406Z,68.17
2018-12-18T11:46:55.265Z,66.70
2018-12-18T11:49:22.711Z,72.33
2018-12-18T11:51:50.166Z,85.90
2018-12-18T11:54:17.623Z,70.83
2018-12-18T11:56:45.100Z,77.90
2018-12-18T11:59:12.571Z,73.50
2018-12-18T12:01:40.011Z,81.10
2018-12-18T12:04:07.447Z,75.40
2018-12-18T12:06:34.975Z,73.40
2018-12-18T12:09:04.794Z,72.20
2018-12-18T12:11:32.252Z,68.17
2018-12-18T12:13:59.682Z,68.90
2018-12-18T12:16:27.127Z,64.93
2018-12-18T12:18:54.603Z,66.30
2018-12-18T12:21:22.040Z,68.80
2018-12-18T12:23:49.494Z,74.23
2018-12-18T12:26:22.472Z,78.10
2018-12-18T12:28:49.928Z,79.13
2018-12-18T12:31:17.377Z,76.97
2018-12-18T12:33:44.855Z,80.30
2018-12-18T12:36:12.311Z,82.80
2018-12-18T12:38:39.747Z,72.43
2018-12-18T12:41:07.227Z,66.77
2018-12-18T12:43:34.662Z,73.53
2018-12-18T12:46:02.144Z,66.80
2018-12-18T12:48:31.560Z,64.03
2018-12-18T12:50:58.999Z,70.27
2018-12-18T12:53:26.452Z,57.37
2018-12-18T12:55:53.898Z,58.37
2018-12-18T12:58:21.361Z,61.87
2018-12-18T13:00:48.807Z,80.20
2018-12-18T13:03:16.250Z,74.77
2018-12-18T13:05:43.845Z,68.67
2018-12-18T13:08:11.283Z,62.77
2018-12-18T13:10:38.767Z,60.63
2018-12-18T13:13:06.253Z,60.07
2018-12-18T13:15:33.699Z,74.77
2018-12-18T13:18:01.138Z,55.27
2018-12-18T13:20:28.700Z,58.23
2018-12-18T13:22:56.163Z,71.10
2018-12-18T13:25:23.642Z,57.43
2018-12-18T13:27:51.109Z,46.50
2018-12-18T13:30:18.578Z,50.83
2018-12-18T13:32:46.034Z,45.53
2018-12-18T13:35:13.608Z,47.70
2018-12-18T13:37:41.057Z,47.67
2018-12-18T13:40:08.512Z,50.03
2018-12-18T13:42:35.991Z,46.00
2018-12-18T13:45:03.643Z,50.67
2018-12-18T13:47:31.083Z,49.67
2018-12-18T13:49:58.554Z,46.13
2018-12-18T13:52:25.993Z,46.07
2018-12-18T13:54:53.420Z,47.10
2018-12-18T13:57:20.890Z,49.60
2018-12-18T13:59:48.327Z,39.70
2018-12-18T14:02:15.784Z,51.50
2018-12-18T14:04:43.231Z,44.00
2018-12-18T14:07:10.671Z,56.93
2018-12-18T14:09:38.461Z,54.03
2018-12-18T14:12:05.910Z,47.87
2018-12-18T14:14:33.334Z,47.43
2018-12-18T14:17:00.972Z,44.10
2018-12-18T14:19:28.435Z,53.67
2018-12-18T14:21:55.904Z,44.23
2018-12-18T14:24:23.354Z,47.93
2018-12-18T14:26:50.807Z,43.17
2018-12-18T14:29:18.260Z,43.90
2018-12-18T14:31:45.688Z,52.70
2018-12-18T14:34:13.130Z,48.53
2018-12-18T14:36:40.574Z,46.47
2018-12-18T14:39:08.046Z,42.40
2018-12-18T14:41:35.459Z,45.30
2018-12-18T14:44:02.988Z,52.07
2018-12-18T14:46:30.403Z,44.07
2018-12-18T14:48:57.830Z,41.80
2018-12-18T14:51:25.287Z,52.10
2018-12-18T14:53:52.742Z,46.27
2018-12-18T14:56:20.295Z,46.30
2018-12-18T14:58:47.751Z,43.70
2018-12-18T15:01:15.184Z,33.37
2018-12-18T15:03:42.632Z,36.10
2018-12-18T15:06:10.090Z,35.53
2018-12-18T15:08:37.526Z,37.40
2018-12-18T15:11:04.972Z,33.73
2018-12-18T15:13:32.451Z,34.67
2018-12-18T15:15:59.888Z,38.13
2018-12-18T15:18:27.412Z,37.13
2018-12-18T15:20:54.891Z,36.23
2018-12-18T15:23:22.328Z,30.37
2018-12-18T15:25:49.826Z,31.70
2018-12-18T15:28:17.448Z,28.23
2018-12-18T15:30:44.966Z,40.10
2018-12-18T15:33:12.399Z,37.83
2018-12-18T15:35:39.866Z,45.37
2018-12-18T15:38:07.314Z,31.33
2018-12-18T15:40:34.988Z,33.27
2018-12-18T15:43:02.427Z,36.70
2018-12-18T15:45:29.879Z,38.90
2018-12-18T15:47:57.331Z,36.23
2018-12-18T15:50:24.791Z,30.40
2018-12-18T15:52:52.248Z,27.77
2018-12-18T15:55:19.719Z,30.37
2018-12-18T15:57:47.162Z,38.23
2018-12-18T16:00:14.666Z,30.53
2018-12-18T16:02:42.111Z,33.20
2018-12-18T16:05:09.551Z,36.73
2018-12-18T16:07:36.995Z,36.83
2018-12-18T16:10:05.515Z,34.37
2018-12-18T16:12:33.058Z,40.00
2018-12-18T16:15:00.506Z,28.10
2018-12-18T16:17:27.939Z,32.47
2018-12-18T16:19:55.433Z,27.83
2018-12-18T16:22:22.890Z,32.03
2018-12-18T16:24:50.335Z,29.43
2018-12-18T16:27:17.828Z,30.23
2018-12-18T16:29:45.327Z,29.70
2018-12-18T16:32:12.769Z,24.27
2018-12-18T16:34:40.258Z,26.37
2018-12-18T16:37:07.799Z,29.10
2018-12-18T16:39:35.260Z,22.87
2018-12-18T16:42:02.714Z,24.30
2018-12-18T16:44:30.182Z,28.83
2018-12-18T16:46:57.619Z,27.80
2018-12-18T16:49:25.076Z,31.70
2018-12-18T16:51:52.570Z,25.47
2018-12-18T16:54:20.518Z,26.30
2018-12-18T16:56:48.484Z,23.63
2018-12-18T16:59:15.931Z,21.03
2018-12-18T17:01:43.398Z,25.30
2018-12-18T17:04:10.843Z,27.00
2018-12-18T17:06:38.304Z,25.33
2018-12-18T17:09:06.762Z,25.80
2018-12-18T17:11:34.192Z,21.97
2018-12-18T17:14:02.434Z,18.73
2018-12-18T17:16:30.011Z,23.00
2018-12-18T17:18:57.467Z,23.07
2018-12-18T17:21:24.918Z,23.77
2018-12-18T17:23:52.398Z,20.97
2018-12-18T17:26:19.828Z,21.07
2018-12-18T17:28:47.274Z,24.57
2018-12-18T17:31:14.716Z,23.50
2018-12-18T17:33:42.173Z,24.10
2018-12-18T17:36:09.615Z,23.13
2018-12-18T17:38:37.044Z,26.93
2018-12-18T17:41:04.571Z,24.07
2018-12-18T17:43:32.562Z,23.67
2018-12-18T17:46:00.021Z,27.70
2018-12-18T17:48:27.470Z,25.83
2018-12-18T17:50:54.928Z,34.40
2018-12-18T17:53:22.385Z,28.30
2018-12-18T17:55:49.822Z,30.83
2018-12-18T17:58:17.315Z,32.00
2018-12-18T18:00:44.802Z,35.47
2018-12-18T18:03:12.231Z,33.77
2018-12-18T18:05:39.736Z,36.83
2018-12-18T18:08:08.207Z,40.13
2018-12-18T18:10:35.715Z,42.77
2018-12-18T18:13:03.239Z,33.00
2018-12-18T18:15:30.747Z,27.17
2018-12-18T18:17:58.246Z,31.50
2018-12-18T18:20:26.256Z,34.07
2018-12-18T18:22:53.715Z,34.47
2018-12-18T18:25:21.235Z,35.40
2018-12-18T18:27:48.690Z,31.93
2018-12-18T18:30:16.122Z,32.83
2018-12-18T18:32:43.610Z,35.77
2018-12-18T18:35:11.132Z,33.00
2018-12-18T18:37:38.592Z,33.20
2018-12-18T18:40:07.495Z,33.00
2018-12-18T18:42:35.030Z,31.70
2018-12-18T18:45:02.506Z,40.73
2018-12-18T18:47:29.975Z,34.33
2018-12-18T18:49:57.519Z,27.23
2018-12-18T18:52:24.947Z,32.30
2018-12-18T18:54:52.396Z,31.97
2018-12-18T18:57:19.931Z,29.40
2018-12-18T18:59:47.387Z,33.67
2018-12-18T19:02:14.880Z,28.93
2018-12-18T19:04:42.341Z,32.93
2018-12-18T19:07:09.798Z,39.73
2018-12-18T19:09:37.251Z,44.60
2018-12-18T19:12:04.675Z,40.60
2018-12-18T19:14:32.229Z,38.70
2018-12-18T19:16:59.724Z,33.20
2018-12-18T19:19:27.160Z,39.07
2018-12-18T19:21:54.618Z,41.67
2018-12-18T19:24:22.193Z,38.87
2018-12-18T19:26:49.675Z,31.33
2018-12-18T19:29:17.115Z,32.30
2018-12-18T19:31:44.571Z,32.83
2018-12-18T19:34:12.060Z,37.80
2018-12-18T19:36:39.659Z,30.73
2018-12-18T19:39:07.863Z,35.03
2018-12-18T19:41:35.302Z,32.33
2018-12-18T19:44:02.797Z,35.20
2018-12-18T19:46:30.226Z,27.53
2018-12-18T19:48:57.691Z,29.63
2018-12-18T19:51:25.168Z,28.10
2018-12-18T19:53:52.683Z,25.67
2018-12-18T19:56:20.107Z,28.37
2018-12-18T19:58:47.564Z,30.47
2018-12-18T20:01:14.999Z,24.53
2018-12-18T20:03:42.457Z,32.10
2018-12-18T20:06:09.987Z,27.37
2018-12-18T20:08:37.447Z,30.07
2018-12-18T20:11:05.013Z,26.70
2018-12-18T20:13:32.463Z,39.30
2018-12-18T20:15:59.909Z,36.83
2018-12-18T20:18:27.402Z,26.83
2018-12-18T20:20:54.835Z,30.93
2018-12-18T20:23:22.324Z,36.40
2018-12-18T20:25:50.318Z,36.27
2018-12-18T20:28:17.775Z,29.77
2018-12-18T20:30:45.359Z,28.97
2018-12-18T20:33:12.868Z,34.63
2018-12-18T20:35:40.311Z,30.30
2018-12-18T20:38:07.911Z,31.57
2018-12-18T20:40:35.355Z,35.93
2018-12-18T20:43:02.874Z,29.60
2018-12-18T20:45:30.307Z,38.20
2018-12-18T20:47:57.744Z,36.60
2018-12-18T20:50:25.190Z,37.70
2018-12-18T20:52:52.630Z,40.97
2018-12-18T20:55:20.094Z,46.47
2018-12-18T20:57:47.543Z,42.73
2018-12-18T21:00:15.138Z,45.40
2018-12-18T21:02:42.684Z,47.87
2018-12-18T21:05:10.451Z,49.30
2018-12-18T21:07:37.895Z,54.90
2018-12-18T21:10:06.250Z,47.37
2018-12-18T21:12:33.750Z,51.00
2018-12-18T21:15:01.188Z,50.73
2018-12-18T21:17:28.635Z,40.27
2018-12-18T21:19:56.146Z,50.87
2018-12-18T21:22:23.606Z,51.87
2018-12-18T21:24:51.095Z,41.47
2018-12-18T21:27:18.553Z,47.03
2018-12-18T21:29:46.019Z,44.53
2018-12-18T21:32:13.466Z,49.30
2018-12-18T21:34:40.920Z,46.83
2018-12-18T21:37:08.395Z,48.23
2018-12-18T21:39:35.846Z,52.90
2018-12-18T21:42:03.328Z,45.47
2018-12-18T21:44:30.833Z,45.13
2018-12-18T21:46:58.281Z,44.23
2018-12-18T21:49:25.896Z,49.13
2018-12-18T21:51:53.610Z,51.07
2018-12-18T21:54:21.120Z,42.07
2018-12-18T21:56:48.575Z,44.80
2018-12-18T21:59:16.075Z,40.80
2018-12-18T22:01:43.509Z,44.57
2018-12-18T22:04:10.943Z,40.37
2018-12-18T22:06:38.379Z,34.47
2018-12-18T22:09:06.957Z,38.23
2018-12-18T22:11:34.507Z,35.07
2018-12-18T22:14:01.960Z,37.67
2018-12-18T22:16:29.503Z,38.90
2018-12-18T22:18:57.039Z,37.47
2018-12-18T22:21:24.483Z,43.03
2018-12-18T22:23:51.931Z,36.23
2018-12-18T22:26:19.380Z,35.23
2018-12-18T22:28:46.839Z,39.73
2018-12-18T22:31:14.275Z,32.57
2018-12-18T22:33:41.739Z,42.63
2018-12-18T22:36:09.167Z,38.77
2018-12-18T22:38:36.620Z,38.80
2018-12-18T22:41:04.055Z,35.37
2018-12-18T22:43:31.488Z,33.70
2018-12-18T22:45:58.931Z,35.43
2018-12-18T22:48:26.381Z,35.30
2018-12-18T22:50:53.908Z,37.07
2018-12-18T22:53:21.372Z,36.43
2018-12-18T22:55:48.796Z,33.83
2018-12-18T22:58:16.242Z,37.10
2018-12-18T23:03:51.482Z,37.93
2018-12-18T23:06:18.931Z,32.63
2018-12-18T23:08:50.168Z,37.80
2018-12-18T23:11:15.870Z,43.30
2018-12-18T23:13:43.295Z,37.80
2018-12-18T23:16:10.730Z,37.47
2018-12-18T23:18:38.214Z,38.17
2018-12-18T23:21:05.754Z,41.27
2018-12-18T23:23:33.191Z,42.30
2018-12-18T23:26:00.647Z,43.50
2018-12-18T23:28:28.101Z,38.67
2018-12-18T23:30:55.539Z,36.70
2018-12-18T23:33:22.999Z,46.23
2018-12-18T23:35:50.432Z,38.80
2018-12-18T23:38:17.850Z,40.23
2018-12-18T23:40:45.303Z,38.60
2018-12-18T23:43:12.844Z,43.77
2018-12-18T23:45:40.299Z,38.50
2018-12-18T23:48:07.754Z,41.23
2018-12-18T23:50:35.194Z,42.67
2018-12-18T23:53:02.737Z,41.17
2018-12-18T23:55:30.200Z,40.20
2018-12-18T23:57:57.659Z,40.60
